Time;durP1;ratioP1;P1;durP2;ratioP2;P2;SDS_P1;SDS_P2;PMS_P1;PMS_P2;Temp;Humidity;BMP_temperature;BMP_pressure;BME280_temperature;BME280_humidity;BME280_pressure;Samples;Min_cycle;Max_cycle;Signal;HPM_P1;HPM_P2
2021/01/18 00:00:14;;;;;;;14.88;4.40;;;7.50;63.90;;;;;;6266499;28;20103;-78
2021/01/18 00:03:15;;;;;;;7.60;3.73;;;7.40;63.80;;;;;;6276785;28;20148;-78
2021/01/18 00:06:20;;;;;;;9.57;2.75;;;7.40;63.90;;;;;;6268362;28;20267;-78
2021/01/18 00:09:23;;;;;;;6.22;2.72;;;7.30;64.00;;;;;;6289365;28;20113;-79
2021/01/18 00:12:24;;;;;;;3.90;2.15;;;7.30;63.90;;;;;;6289107;28;20036;-78
2021/01/18 00:15:26;;;;;;;4.25;2.25;;;7.30;63.90;;;;;;6288777;28;20043;-78
2021/01/18 00:18:29;;;;;;;12.02;2.15;;;7.30;63.80;;;;;;6304928;28;20469;-78
2021/01/18 00:21:30;;;;;;;3.38;2.20;;;7.30;63.90;;;;;;6291238;28;20485;-78
2021/01/18 00:24:31;;;;;;;8.05;3.33;;;7.30;63.80;;;;;;6303918;28;20119;-78
2021/01/18 00:27:32;;;;;;;7.82;3.92;;;7.30;63.80;;;;;;6286712;28;20032;-76
2021/01/18 00:30:33;;;;;;;13.73;4.72;;;7.30;63.80;;;;;;6289170;28;20347;-77
2021/01/18 00:33:34;;;;;;;10.77;5.03;;;7.30;64.00;;;;;;6275770;28;20052;-77
2021/01/18 00:36:34;;;;;;;8.20;4.47;;;7.20;64.00;;;;;;6275818;28;20044;-79
2021/01/18 00:39:36;;;;;;;8.45;4.28;;;7.20;64.10;;;;;;6253029;28;20394;-76
2021/01/18 00:43:07;;;;;;;11.35;5.32;;;7.30;64.20;;;;;;6253977;28;20069;-77
2021/01/18 00:46:08;;;;;;;8.35;4.18;;;7.30;64.40;;;;;;6288235;28;20155;-77
2021/01/18 00:49:09;;;;;;;7.63;3.97;;;7.30;64.30;;;;;;6294038;28;22026;-77
2021/01/18 00:52:12;;;;;;;8.70;4.47;;;7.30;64.30;;;;;;6293800;28;20043;-77
2021/01/18 00:55:16;;;;;;;13.82;4.28;;;7.30;64.30;;;;;;6292282;28;20377;-77
2021/01/18 00:58:30;;;;;;;6.75;4.10;;;7.30;64.30;;;;;;6293842;28;20028;-78
2021/01/18 01:01:51;;;;;;;7.40;4.25;;;7.30;64.30;;;;;;6292281;28;20029;-78
2021/01/18 01:04:53;;;;;;;12.38;4.93;;;7.30;64.30;;;;;;6323432;28;20375;-77
2021/01/18 01:07:56;;;;;;;12.00;5.13;;;7.30;64.30;;;;;;6293618;28;20167;-77
2021/01/18 01:10:57;;;;;;;10.90;4.15;;;7.20;64.40;;;;;;6294914;28;20040;-77
2021/01/18 01:13:58;;;;;;;9.38;4.20;;;7.20;64.40;;;;;;6294466;28;20083;-76
2021/01/18 01:16:59;;;;;;;10.68;4.32;;;7.20;64.40;;;;;;6295061;28;20047;-77
2021/01/18 01:20:01;;;;;;;7.75;4.32;;;7.20;64.50;;;;;;6299247;28;20040;-77
2021/01/18 01:23:02;;;;;;;6.63;3.50;;;7.30;64.50;;;;;;6299830;28;20377;-77
2021/01/18 01:26:03;;;;;;;16.77;4.72;;;7.20;64.50;;;;;;6295444;28;20044;-77
2021/01/18 01:29:04;;;;;;;6.57;3.75;;;7.30;64.50;;;;;;6300665;28;20090;-77
2021/01/18 01:32:05;;;;;;;7.53;3.95;;;7.30;64.50;;;;;;6280363;28;20036;-77
2021/01/18 01:35:08;;;;;;;8.27;4.55;;;7.40;64.40;;;;;;6324251;27;20037;-77
2021/01/18 01:38:09;;;;;;;7.70;4.10;;;7.40;64.20;;;;;;6284634;28;20033;-77
2021/01/18 01:41:10;;;;;;;9.82;4.43;;;7.40;64.10;;;;;;6283169;28;20052;-77
2021/01/18 01:44:11;;;;;;;7.07;3.60;;;7.40;63.90;;;;;;6296116;28;20039;-76
2021/01/18 01:47:20;;;;;;;8.02;4.20;;;7.40;63.90;;;;;;6295738;28;20041;-79
2021/01/18 01:50:31;;;;;;;5.65;3.40;;;7.40;63.80;;;;;;6291515;28;20035;-77
2021/01/18 01:53:33;;;;;;;7.28;3.67;;;7.40;63.80;;;;;;6272391;28;20076;-77
2021/01/18 01:56:34;;;;;;;10.48;3.20;;;7.40;63.80;;;;;;6296196;28;20067;-76
2021/01/18 01:59:36;;;;;;;5.68;3.08;;;7.40;63.90;;;;;;6297032;28;20051;-80
2021/01/18 02:02:37;;;;;;;5.20;3.13;;;7.40;63.90;;;;;;6330159;28;20115;-76
2021/01/18 02:05:39;;;;;;;11.05;3.17;;;7.30;63.80;;;;;;6295472;28;20029;-77
2021/01/18 02:08:41;;;;;;;9.07;4.03;;;7.30;63.80;;;;;;6328042;28;20086;-77
2021/01/18 02:11:42;;;;;;;10.52;4.53;;;7.20;63.90;;;;;;6298150;28;20029;-78
2021/01/18 02:15:22;;;;;;;5.57;2.80;;;7.20;64.00;;;;;;6311156;28;20071;-78
2021/01/18 02:18:42;;;;;;;6.78;2.90;;;7.20;64.10;;;;;;6199210;28;20364;-77
2021/01/18 02:22:20;;;;;;;4.68;2.13;;;7.10;64.00;;;;;;6205342;28;20099;-78
2021/01/18 02:25:37;;;;;;;4.22;2.00;;;7.00;64.10;;;;;;6184722;28;20046;-77
2021/01/18 02:28:54;;;;;;;7.10;2.88;;;7.00;64.10;;;;;;6205887;28;20114;-78
2021/01/18 02:32:12;;;;;;;5.90;2.75;;;7.00;64.20;;;;;;6228186;28;20117;-77
2021/01/18 02:35:34;;;;;;;2.80;1.38;;;7.00;64.20;;;;;;6198365;28;20042;-78
2021/01/18 02:38:49;;;;;;;3.33;1.98;;;7.00;64.20;;;;;;6231922;28;20041;-78
2021/01/18 02:42:02;;;;;;;3.75;2.00;;;6.90;64.20;;;;;;6221634;28;20033;-77
2021/01/18 02:45:04;;;;;;;4.03;2.13;;;6.90;64.20;;;;;;6224802;28;20030;-77
2021/01/18 02:48:06;;;;;;;5.95;2.60;;;6.90;64.40;;;;;;6227789;28;20102;-77
2021/01/18 02:51:11;;;;;;;3.40;2.08;;;6.90;64.40;;;;;;6213495;28;20409;-77
2021/01/18 02:54:12;;;;;;;8.52;3.40;;;6.90;64.40;;;;;;6223251;28;20059;-77
2021/01/18 02:57:14;;;;;;;6.10;2.83;;;6.90;64.30;;;;;;6282138;28;20041;-77
2021/01/18 03:00:22;;;;;;;4.25;2.42;;;7.00;64.20;;;;;;6269197;28;20033;-76
2021/01/18 03:03:52;;;;;;;6.07;2.88;;;6.90;64.20;;;;;;6267447;28;20493;-76
2021/01/18 03:07:37;;;;;;;5.90;2.72;;;7.00;64.30;;;;;;6289322;28;20033;-78
2021/01/18 03:10:57;;;;;;;6.55;2.67;;;7.00;64.30;;;;;;6272178;28;20042;-77
2021/01/18 03:14:14;;;;;;;6.93;2.85;;;7.00;64.30;;;;;;6321321;28;20064;-77
2021/01/18 03:17:21;;;;;;;5.95;2.58;;;7.00;64.30;;;;;;6295030;28;20055;-77
2021/01/18 03:20:28;;;;;;;9.65;2.65;;;7.00;64.10;;;;;;6293126;28;20135;-77
2021/01/18 03:23:29;;;;;;;8.10;2.92;;;7.00;64.10;;;;;;6263732;28;20044;-78
2021/01/18 03:26:30;;;;;;;3.70;2.17;;;7.00;64.10;;;;;;6293648;28;20036;-78
2021/01/18 03:29:31;;;;;;;5.57;2.75;;;7.00;64.00;;;;;;6309243;28;20465;-78
2021/01/18 03:33:00;;;;;;;6.22;2.13;;;6.90;63.90;;;;;;6294007;28;20101;-77
2021/01/18 03:36:01;;;;;;;4.07;2.10;;;6.90;64.00;;;;;;6293187;28;20033;-77
2021/01/18 03:39:02;;;;;;;6.10;2.78;;;6.80;64.00;;;;;;6293067;28;20484;-79
2021/01/18 03:42:03;;;;;;;7.85;3.95;;;6.80;64.20;;;;;;6295383;28;20081;-77
2021/01/18 03:45:05;;;;;;;7.40;4.45;;;6.80;64.20;;;;;;6292689;28;20040;-77
2021/01/18 03:48:08;;;;;;;6.28;3.60;;;6.80;64.30;;;;;;6294357;28;20067;-76
2021/01/18 03:51:09;;;;;;;6.57;3.35;;;6.80;64.50;;;;;;6293518;28;20055;-77
2021/01/18 03:54:10;;;;;;;7.93;4.05;;;6.80;64.50;;;;;;6292611;28;20033;-79
2021/01/18 03:57:11;;;;;;;9.23;3.60;;;6.80;64.50;;;;;;6323195;28;20040;-78
2021/01/18 04:00:13;;;;;;;12.25;4.45;;;6.80;64.60;;;;;;6310090;28;20032;-78
2021/01/18 04:03:14;;;;;;;9.30;4.97;;;6.80;64.60;;;;;;6293696;28;20048;-79
2021/01/18 04:06:15;;;;;;;14.13;4.43;;;6.70;64.50;;;;;;6293339;28;20043;-78
2021/01/18 04:09:19;;;;;;;6.95;3.72;;;6.80;64.70;;;;;;6307249;28;20355;-78
2021/01/18 04:12:20;;;;;;;9.25;4.53;;;6.70;64.70;;;;;;6291048;28;20434;-78
2021/01/18 04:15:22;;;;;;;7.32;3.03;;;6.70;64.60;;;;;;6321990;28;20036;-78
2021/01/18 04:18:24;;;;;;;6.97;4.05;;;6.70;64.70;;;;;;6321928;28;20040;-77
2021/01/18 04:21:25;;;;;;;6.15;3.10;;;6.60;64.60;;;;;;6280719;28;20115;-79
2021/01/18 04:24:26;;;;;;;9.57;3.83;;;6.60;64.80;;;;;;6294313;28;20366;-78
2021/01/18 04:27:27;;;;;;;7.82;4.38;;;6.60;64.90;;;;;;6295648;28;20490;-78
2021/01/18 04:30:33;;;;;;;6.90;3.78;;;6.60;65.80;;;;;;6294382;28;20158;-78
2021/01/18 04:33:35;;;;;;;8.88;4.30;;;6.60;65.00;;;;;;6291481;28;20036;-77
2021/01/18 04:36:39;;;;;;;8.10;4.35;;;6.70;65.00;;;;;;6272350;28;20377;-77
2021/01/18 04:39:40;;;;;;;7.45;3.97;;;6.70;64.90;;;;;;6286464;28;20110;-77
2021/01/18 04:42:42;;;;;;;8.15;4.28;;;6.70;64.90;;;;;;6302051;28;20028;-78
2021/01/18 04:45:43;;;;;;;9.05;4.28;;;6.70;64.90;;;;;;6319502;28;20152;-77
2021/01/18 04:48:45;;;;;;;8.60;3.92;;;6.70;64.90;;;;;;6325925;28;20067;-77
2021/01/18 04:51:53;;;;;;;9.88;4.15;;;6.70;64.90;;;;;;6310306;28;20453;-77
2021/01/18 04:54:56;;;;;;;6.97;3.88;;;6.70;65.00;;;;;;6292975;28;20083;-77
2021/01/18 04:58:02;;;;;;;9.57;4.78;;;6.70;65.00;;;;;;6303932;28;20139;-78
2021/01/18 05:01:05;;;;;;;9.00;3.55;;;6.70;65.10;;;;;;6291140;28;20037;-78
2021/01/18 05:04:13;;;;;;;7.47;3.17;;;6.70;65.10;;;;;;6289311;28;20060;-78
2021/01/18 05:07:35;;;;;;;6.75;3.17;;;6.60;65.00;;;;;;6293828;28;20170;-78
2021/01/18 05:10:41;;;;;;;9.82;4.20;;;6.60;64.80;;;;;;6275061;28;20033;-79
2021/01/18 05:13:43;;;;;;;13.75;3.72;;;6.60;64.80;;;;;;6287437;28;20037;-78
2021/01/18 05:16:50;;;;;;;12.82;4.53;;;6.60;64.80;;;;;;6325907;28;20040;-78
2021/01/18 05:19:51;;;;;;;7.15;3.75;;;6.50;64.80;;;;;;6294998;28;20036;-79
2021/01/18 05:22:52;;;;;;;8.27;4.07;;;6.50;64.70;;;;;;6326822;28;20051;-79
2021/01/18 05:26:28;;;;;;;8.85;3.95;;;6.40;64.70;;;;;;6314733;28;20060;-77
2021/01/18 05:29:32;;;;;;;8.95;4.30;;;6.40;64.70;;;;;;6291252;28;20056;-78
2021/01/18 05:33:16;;;;;;;10.15;4.50;;;6.30;64.80;;;;;;6272551;28;20082;-77
2021/01/18 05:36:46;;;;;;;12.98;4.85;;;6.30;64.80;;;;;;6291737;28;20037;-78
2021/01/18 05:39:47;;;;;;;12.32;5.20;;;6.30;64.90;;;;;;6272645;28;20053;-78
2021/01/18 05:42:50;;;;;;;12.18;5.38;;;6.20;64.90;;;;;;6260294;28;20086;-79
2021/01/18 05:46:02;;;;;;;13.25;5.43;;;6.20;64.90;;;;;;6297638;28;20040;-78
2021/01/18 05:49:20;;;;;;;12.68;5.35;;;6.20;65.00;;;;;;6260725;28;20102;-78
2021/01/18 05:52:31;;;;;;;16.43;4.60;;;6.20;65.10;;;;;;6289840;28;20044;-77
2021/01/18 05:55:32;;;;;;;10.57;4.20;;;6.20;65.00;;;;;;6291358;28;20041;-77
2021/01/18 05:58:33;;;;;;;8.05;4.28;;;6.20;65.00;;;;;;6287908;28;20029;-78
2021/01/18 06:01:39;;;;;;;11.13;4.28;;;6.10;65.00;;;;;;6273309;28;20032;-77
2021/01/18 06:04:39;;;;;;;13.68;3.75;;;6.10;65.00;;;;;;6293605;28;20047;-77
2021/01/18 06:07:40;;;;;;;11.45;4.25;;;6.10;65.00;;;;;;6295000;28;20036;-84
2021/01/18 06:10:46;;;;;;;9.68;4.65;;;6.00;64.90;;;;;;6269448;28;20029;-84
2021/01/18 06:13:48;;;;;;;11.52;5.03;;;6.00;65.10;;;;;;6329541;27;20173;-80
2021/01/18 06:16:53;;;;;;;12.43;4.78;;;6.00;65.10;;;;;;6303860;28;20047;-84
2021/01/18 06:19:54;;;;;;;12.27;4.95;;;5.90;65.10;;;;;;6295084;28;20045;-84
2021/01/18 06:22:58;;;;;;;10.43;4.30;;;5.90;65.20;;;;;;6294510;28;20068;-85
2021/01/18 06:26:00;;;;;;;11.85;5.00;;;5.80;65.40;;;;;;6294904;28;20041;-82
2021/01/18 06:29:01;;;;;;;8.43;4.35;;;5.80;65.40;;;;;;6286783;28;20040;-81
2021/01/18 06:32:04;;;;;;;12.00;4.47;;;5.80;65.50;;;;;;6289921;28;20123;-81
2021/01/18 06:35:05;;;;;;;9.57;4.50;;;5.80;65.50;;;;;;6299962;28;20079;-82
2021/01/18 06:38:07;;;;;;;9.25;4.32;;;5.80;65.70;;;;;;6293310;28;20063;-78
2021/01/18 06:41:09;;;;;;;12.73;5.13;;;5.80;65.70;;;;;;6316747;28;20128;-78
2021/01/18 06:44:10;;;;;;;9.10;4.63;;;5.80;65.60;;;;;;6270104;28;20030;-78
2021/01/18 06:47:33;;;;;;;12.45;5.25;;;5.70;65.70;;;;;;6301324;28;20118;-82
2021/01/18 06:50:39;;;;;;;7.10;3.78;;;5.70;65.80;;;;;;6288539;28;20043;-81
2021/01/18 06:53:47;;;;;;;11.10;4.85;;;5.70;65.90;;;;;;6258338;28;20051;-82
2021/01/18 06:57:20;;;;;;;14.65;4.50;;;5.70;65.90;;;;;;6254405;28;20029;-80
2021/01/18 07:00:21;;;;;;;10.50;4.13;;;5.70;65.90;;;;;;6227405;28;20080;-82
2021/01/18 07:03:36;;;;;;;9.48;4.07;;;5.70;65.80;;;;;;6244011;28;20377;-81
2021/01/18 07:06:55;;;;;;;10.70;4.75;;;5.70;65.90;;;;;;6251496;28;20033;-80
2021/01/18 07:09:58;;;;;;;8.63;4.60;;;5.70;65.80;;;;;;6249670;28;20466;-81
2021/01/18 07:13:02;;;;;;;7.15;3.83;;;5.70;65.80;;;;;;6249050;28;20136;-80
2021/01/18 07:16:12;;;;;;;11.38;4.90;;;5.80;65.80;;;;;;6264369;28;20125;-80
2021/01/18 07:19:29;;;;;;;7.75;3.72;;;5.70;65.60;;;;;;6262244;28;20041;-80
2021/01/18 07:22:51;;;;;;;9.77;4.40;;;5.80;65.60;;;;;;6256663;28;20037;-81
2021/01/18 07:26:05;;;;;;;13.82;4.85;;;5.70;65.40;;;;;;6257309;28;20048;-81
2021/01/18 07:29:12;;;;;;;10.82;4.20;;;5.70;65.40;;;;;;6264969;28;20029;-81
2021/01/18 07:32:13;;;;;;;9.73;4.75;;;5.70;65.30;;;;;;6248072;28;20045;-80
2021/01/18 07:35:15;;;;;;;11.70;3.83;;;5.70;65.30;;;;;;6219002;28;20035;-81
2021/01/18 07:38:18;;;;;;;8.60;4.18;;;5.70;65.10;;;;;;6278708;28;20028;-80
2021/01/18 07:41:20;;;;;;;11.35;4.90;;;5.70;65.80;;;;;;6250980;28;20044;-81
2021/01/18 07:44:37;;;;;;;10.50;4.88;;;5.70;65.00;;;;;;6253359;28;20029;-81
2021/01/18 07:48:01;;;;;;;11.60;4.20;;;5.70;65.00;;;;;;6240501;28;20048;-80
2021/01/18 07:51:02;;;;;;;12.13;5.13;;;5.70;65.00;;;;;;6289616;28;20115;-81
2021/01/18 07:54:04;;;;;;;9.20;4.53;;;5.70;64.90;;;;;;6289159;28;20049;-81
2021/01/18 07:57:24;;;;;;;10.50;4.43;;;5.70;64.80;;;;;;6289222;28;20048;-80
2021/01/18 08:00:27;;;;;;;10.88;4.60;;;5.80;64.70;;;;;;6263881;28;20061;-81
2021/01/18 08:03:29;;;;;;;7.10;4.15;;;5.80;64.60;;;;;;6250837;28;20049;-80
2021/01/18 08:06:30;;;;;;;17.13;4.07;;;5.80;64.60;;;;;;6255054;28;20492;-82
2021/01/18 08:09:38;;;;;;;12.63;4.63;;;5.80;64.20;;;;;;6277457;28;20048;-80
2021/01/18 08:12:38;;;;;;;7.85;3.40;;;5.80;63.90;;;;;;6325325;27;20046;-81
2021/01/18 08:15:46;;;;;;;9.13;3.88;;;5.90;63.90;;;;;;6326118;27;20037;-81
2021/01/18 08:19:14;;;;;;;9.57;3.25;;;5.90;63.60;;;;;;6286337;28;20032;-80
2021/01/18 08:22:28;;;;;;;8.27;3.40;;;5.90;63.30;;;;;;6306384;28;20563;-80
2021/01/18 08:25:32;;;;;;;7.10;4.05;;;5.90;62.90;;;;;;6308819;28;20033;-80
2021/01/18 08:28:36;;;;;;;179.57;66.90;;;5.90;62.70;;;;;;6281677;28;22984;-81
2021/01/18 08:31:37;;;;;;;10.02;4.55;;;5.90;62.70;;;;;;6266603;28;20044;-80
2021/01/18 08:34:39;;;;;;;12.55;3.97;;;6.00;62.80;;;;;;6264639;28;20426;-82
2021/01/18 08:37:51;;;;;;;7.35;2.95;;;6.00;62.30;;;;;;6267026;28;20040;-81
2021/01/18 08:41:03;;;;;;;12.70;3.97;;;6.00;62.40;;;;;;6271274;28;20036;-81
2021/01/18 08:44:04;;;;;;;5.75;2.70;;;6.10;62.20;;;;;;6292726;28;20036;-81
2021/01/18 08:47:37;;;;;;;6.90;3.17;;;6.10;62.10;;;;;;6304375;28;20041;-81
2021/01/18 08:50:41;;;;;;;10.00;4.70;;;6.20;62.10;;;;;;6290789;28;20056;-80
2021/01/18 08:53:46;;;;;;;10.10;4.10;;;6.30;62.00;;;;;;6327596;28;20045;-81
2021/01/18 08:56:48;;;;;;;8.40;3.97;;;6.40;61.70;;;;;;6310395;28;20111;-80
2021/01/18 09:00:08;;;;;;;7.38;4.28;;;6.50;61.60;;;;;;6301284;28;20369;-81
2021/01/18 09:03:11;;;;;;;9.55;3.15;;;6.60;61.30;;;;;;6335100;28;20067;-81
2021/01/18 09:06:13;;;;;;;10.55;5.38;;;6.70;60.90;;;;;;6299405;28;20032;-80
2021/01/18 09:09:14;;;;;;;12.40;5.18;;;6.60;60.20;;;;;;6276375;28;20040;-80
2021/01/18 09:12:16;;;;;;;10.93;4.10;;;6.60;60.20;;;;;;6293649;28;20116;-81
2021/01/18 09:15:20;;;;;;;14.35;5.05;;;6.60;60.60;;;;;;6294781;28;20116;-83
2021/01/18 09:18:22;;;;;;;12.23;5.80;;;6.70;60.60;;;;;;6293866;28;20031;-82
2021/01/18 09:21:26;;;;;;;11.10;5.05;;;6.70;60.60;;;;;;6277313;28;20028;-82
2021/01/18 09:24:31;;;;;;;8.32;4.28;;;6.80;60.60;;;;;;6293269;28;20124;-80
2021/01/18 09:27:33;;;;;;;10.50;5.07;;;6.80;60.40;;;;;;6303906;28;20032;-82
2021/01/18 09:30:35;;;;;;;10.32;4.20;;;6.80;60.20;;;;;;6294369;28;20039;-81
2021/01/18 09:33:37;;;;;;;12.88;5.03;;;6.90;60.30;;;;;;6313622;28;20029;-81
2021/01/18 09:36:39;;;;;;;16.80;5.18;;;6.90;60.00;;;;;;6325541;28;20036;-81
2021/01/18 09:39:40;;;;;;;11.18;4.43;;;7.00;60.10;;;;;;6328362;28;20040;-81
2021/01/18 09:42:41;;;;;;;10.10;4.53;;;7.00;60.00;;;;;;6295538;28;20034;-80
2021/01/18 09:45:42;;;;;;;9.95;4.30;;;7.00;59.80;;;;;;6300111;28;20033;-82
2021/01/18 09:48:49;;;;;;;13.38;4.65;;;7.00;59.50;;;;;;6276717;28;20040;-81
2021/01/18 09:51:50;;;;;;;10.27;4.93;;;7.00;59.50;;;;;;6282313;28;20037;-81
2021/01/18 09:54:52;;;;;;;11.35;4.82;;;7.00;59.40;;;;;;6265637;28;20107;-80
2021/01/18 09:58:14;;;;;;;16.52;4.65;;;6.80;59.10;;;;;;6292596;28;20044;-81
2021/01/18 10:01:18;;;;;;;14.13;5.25;;;7.00;59.20;;;;;;6299348;28;20450;-81
2021/01/18 10:04:24;;;;;;;15.63;6.95;;;7.00;59.10;;;;;;6299623;28;20457;-82
2021/01/18 10:07:27;;;;;;;17.90;7.65;;;7.00;58.90;;;;;;6298693;28;20040;-82
2021/01/18 10:10:28;;;;;;;16.17;7.05;;;7.00;59.00;;;;;;6317477;28;20081;-80
2021/01/18 10:13:30;;;;;;;15.52;7.28;;;7.00;59.10;;;;;;6299579;28;20040;-80
2021/01/18 10:16:31;;;;;;;10.40;4.75;;;7.20;59.10;;;;;;6297808;28;20107;-81
2021/01/18 10:19:34;;;;;;;8.35;3.63;;;7.40;59.10;;;;;;6324517;28;20365;-81
2021/01/18 10:22:36;;;;;;;9.95;4.60;;;7.60;58.50;;;;;;6299725;28;20037;-81
2021/01/18 10:25:37;;;;;;;8.93;4.13;;;7.80;57.70;;;;;;6295280;28;20529;-81
2021/01/18 10:28:49;;;;;;;9.70;3.85;;;8.00;57.50;;;;;;6265977;28;20037;-80
2021/01/18 10:31:53;;;;;;;9.13;3.83;;;8.10;57.20;;;;;;6295993;28;20044;-81
2021/01/18 10:34:54;;;;;;;7.20;3.00;;;8.30;56.70;;;;;;6314171;28;20044;-81
2021/01/18 10:38:15;;;;;;;11.27;5.90;;;8.40;56.30;;;;;;6314484;28;20041;-81
2021/01/18 10:41:22;;;;;;;6.20;3.17;;;8.50;55.90;;;;;;6294168;28;20040;-81
2021/01/18 10:44:23;;;;;;;9.93;4.60;;;8.60;55.10;;;;;;6326476;28;20120;-81
2021/01/18 10:47:27;;;;;;;6.82;3.85;;;8.60;55.00;;;;;;6312882;28;20037;-81
2021/01/18 10:50:30;;;;;;;10.13;4.03;;;8.70;54.90;;;;;;6294994;28;20413;-81
2021/01/18 10:53:33;;;;;;;12.23;3.78;;;8.90;54.80;;;;;;6296417;28;20396;-81
2021/01/18 10:56:34;;;;;;;9.55;4.43;;;9.10;54.70;;;;;;6301917;28;20047;-82
2021/01/18 10:59:35;;;;;;;12.27;5.70;;;9.40;54.30;;;;;;6316109;27;20129;-83
2021/01/18 11:02:38;;;;;;;10.13;4.07;;;9.70;53.80;;;;;;6299132;28;20040;-82
2021/01/18 11:05:39;;;;;;;11.95;4.47;;;9.90;52.40;;;;;;6291586;28;20032;-81
2021/01/18 11:08:42;;;;;;;8.48;4.05;;;9.90;51.40;;;;;;6337381;28;20322;-80
2021/01/18 11:11:43;;;;;;;6.88;3.85;;;10.00;51.70;;;;;;6306688;28;20059;-81
2021/01/18 11:14:44;;;;;;;8.30;3.80;;;10.10;52.30;;;;;;6298052;28;20062;-81
2021/01/18 11:17:51;;;;;;;7.43;3.75;;;10.30;52.20;;;;;;6293214;28;20028;-80
2021/01/18 11:20:53;;;;;;;9.88;4.05;;;10.70;52.00;;;;;;6293888;28;20434;-82
2021/01/18 11:23:55;;;;;;;31.15;13.90;;;11.10;50.90;;;;;;6295153;28;20539;-81
2021/01/18 11:26:57;;;;;;;45.03;18.88;;;11.60;49.60;;;;;;6276800;28;20037;-81
2021/01/18 11:29:58;;;;;;;26.73;11.38;;;12.00;48.00;;;;;;6297732;28;20040;-81
2021/01/18 11:32:59;;;;;;;17.20;8.15;;;12.40;47.30;;;;;;6279287;28;20484;-81
2021/01/18 11:36:00;;;;;;;7.80;4.55;;;12.60;47.00;;;;;;6277607;28;20037;-81
2021/01/18 11:39:02;;;;;;;11.23;4.97;;;12.90;45.90;;;;;;6310622;28;20037;-81
2021/01/18 11:42:06;;;;;;;9.13;4.70;;;13.20;45.50;;;;;;6293563;28;20040;-82
2021/01/18 11:45:07;;;;;;;7.22;3.92;;;13.40;45.00;;;;;;6313003;28;20469;-82
2021/01/18 11:48:08;;;;;;;13.15;5.30;;;13.70;44.10;;;;;;6294159;28;20466;-84
2021/01/18 11:51:11;;;;;;;9.95;4.63;;;14.00;43.70;;;;;;6301034;28;20067;-81
2021/01/18 11:54:12;;;;;;;7.97;3.97;;;14.30;42.70;;;;;;6291819;28;20039;-81
2021/01/18 11:57:14;;;;;;;8.82;4.38;;;14.80;42.30;;;;;;6294107;28;20037;-82
2021/01/18 12:00:23;;;;;;;10.95;4.90;;;15.30;41.40;;;;;;6291267;28;20052;-83
2021/01/18 12:03:25;;;;;;;16.15;6.20;;;15.60;39.90;;;;;;6275652;28;20037;-81
2021/01/18 12:06:34;;;;;;;10.32;5.38;;;15.60;39.00;;;;;;6282390;28;20465;-80
2021/01/18 12:09:35;;;;;;;8.70;4.05;;;15.30;39.70;;;;;;6245257;28;20032;-81
2021/01/18 12:12:37;;;;;;;9.68;4.40;;;14.60;40.80;;;;;;6252453;28;20029;-81
2021/01/18 12:15:38;;;;;;;8.27;4.22;;;14.10;41.70;;;;;;6266896;28;20116;-81
2021/01/18 12:18:39;;;;;;;11.85;3.53;;;13.40;41.90;;;;;;6273561;28;20041;-81
2021/01/18 12:21:43;;;;;;;10.25;3.90;;;12.70;43.20;;;;;;6268219;28;20060;-80
2021/01/18 12:24:46;;;;;;;7.80;4.35;;;12.20;44.30;;;;;;6265228;28;20498;-81
2021/01/18 12:27:52;;;;;;;9.00;3.88;;;11.80;44.90;;;;;;6284624;28;20036;-81
2021/01/18 12:30:54;;;;;;;11.35;3.85;;;11.50;45.60;;;;;;6250417;28;20036;-82
2021/01/18 12:33:55;;;;;;;9.80;4.13;;;11.20;46.20;;;;;;6280632;28;20465;-82
2021/01/18 12:36:57;;;;;;;13.30;4.00;;;10.90;46.80;;;;;;6287228;28;20048;-80
2021/01/18 12:39:58;;;;;;;12.18;4.30;;;10.70;47.10;;;;;;6250099;28;20099;-81
2021/01/18 12:42:59;;;;;;;6.47;3.63;;;10.50;48.10;;;;;;6269494;28;20409;-80
2021/01/18 12:46:00;;;;;;;12.02;4.78;;;10.40;47.90;;;;;;6251960;28;20095;-80
2021/01/18 12:49:01;;;;;;;7.43;3.63;;;10.20;48.30;;;;;;6268048;28;20438;-81
2021/01/18 12:52:02;;;;;;;9.10;4.35;;;10.10;48.60;;;;;;6266474;28;20119;-83
2021/01/18 12:55:05;;;;;;;12.93;4.28;;;10.10;48.80;;;;;;6265386;28;20053;-83
2021/01/18 12:58:06;;;;;;;11.73;3.75;;;10.10;49.10;;;;;;6292480;28;20029;-81
2021/01/18 13:01:07;;;;;;;8.80;4.53;;;10.10;49.30;;;;;;6287587;28;20084;-82
2021/01/18 13:04:08;;;;;;;10.48;4.22;;;10.00;49.20;;;;;;6279058;28;20564;-81
2021/01/18 13:07:09;;;;;;;8.00;4.25;;;10.00;49.40;;;;;;6306279;28;20060;-80
2021/01/18 13:10:11;;;;;;;10.02;3.78;;;10.00;49.60;;;;;;6308347;28;20086;-81
2021/01/18 13:13:12;;;;;;;20.20;4.53;;;10.10;49.70;;;;;;6286606;28;20028;-81
2021/01/18 13:16:17;;;;;;;10.45;5.13;;;10.10;49.60;;;;;;6309702;28;20023;-80
2021/01/18 13:19:18;;;;;;;10.15;4.10;;;10.10;49.70;;;;;;6322801;28;20047;-81
2021/01/18 13:22:19;;;;;;;9.63;4.50;;;10.10;49.70;;;;;;6316014;28;20032;-81
2021/01/18 13:25:20;;;;;;;10.98;4.43;;;10.20;49.90;;;;;;6300266;28;20035;-81
2021/01/18 13:28:21;;;;;;;20.80;7.10;;;10.20;49.80;;;;;;6307070;28;20024;-81
2021/01/18 13:31:22;;;;;;;19.70;7.38;;;10.20;49.60;;;;;;6304290;28;20093;-80
2021/01/18 13:34:24;;;;;;;17.70;7.22;;;10.10;49.40;;;;;;6315582;28;20072;-81
2021/01/18 13:37:25;;;;;;;9.00;4.57;;;10.00;49.70;;;;;;6302806;28;20032;-81
2021/01/18 13:40:28;;;;;;;7.95;4.00;;;10.00;49.70;;;;;;6280277;28;20047;-81
2021/01/18 13:43:29;;;;;;;14.68;4.65;;;10.00;49.80;;;;;;6280231;28;20060;-81
2021/01/18 13:46:30;;;;;;;12.27;4.05;;;10.00;49.90;;;;;;6296452;28;20047;-81
2021/01/18 13:49:31;;;;;;;11.82;4.60;;;10.00;49.90;;;;;;6295232;28;20119;-81
2021/01/18 13:52:33;;;;;;;11.68;5.03;;;10.10;49.90;;;;;;6297730;28;20099;-81
2021/01/18 13:55:34;;;;;;;14.00;4.95;;;10.10;49.90;;;;;;6296193;28;20025;-81
2021/01/18 13:58:35;;;;;;;9.65;4.28;;;10.10;49.90;;;;;;6275534;28;20076;-82
2021/01/18 14:01:36;;;;;;;12.00;4.47;;;10.10;49.80;;;;;;6299290;28;20036;-81
2021/01/18 14:04:37;;;;;;;11.88;4.82;;;10.10;49.80;;;;;;6272738;28;20040;-82
2021/01/18 14:07:44;;;;;;;10.75;5.05;;;10.10;49.80;;;;;;6292016;28;20037;-81
2021/01/18 14:10:49;;;;;;;11.52;5.22;;;10.10;49.80;;;;;;6295609;28;20351;-81
2021/01/18 14:13:52;;;;;;;11.30;5.07;;;10.00;49.80;;;;;;6293304;28;20048;-81
2021/01/18 14:16:53;;;;;;;12.27;5.22;;;10.00;50.10;;;;;;6312447;28;20048;-81
2021/01/18 14:19:54;;;;;;;11.15;4.50;;;10.10;50.20;;;;;;6296032;28;20127;-82
2021/01/18 14:22:55;;;;;;;10.15;5.05;;;10.10;50.30;;;;;;6326132;28;20046;-80
2021/01/18 14:25:56;;;;;;;19.13;7.32;;;10.10;50.30;;;;;;6292614;28;20041;-81
2021/01/18 14:28:57;;;;;;;11.27;5.00;;;10.20;50.30;;;;;;6294248;28;20036;-80
2021/01/18 14:31:58;;;;;;;13.20;4.82;;;10.30;50.30;;;;;;6325463;28;20493;-81
2021/01/18 14:34:59;;;;;;;8.55;3.92;;;10.30;50.10;;;;;;6280386;28;20041;-80
2021/01/18 14:38:00;;;;;;;12.95;5.07;;;10.40;50.00;;;;;;6296680;28;20041;-79
2021/01/18 14:41:01;;;;;;;11.07;4.95;;;10.40;50.00;;;;;;6328900;28;20121;-82
2021/01/18 14:44:04;;;;;;;10.73;4.55;;;10.50;49.90;;;;;;6298636;28;20414;-80
2021/01/18 14:47:08;;;;;;;11.20;5.13;;;10.50;49.90;;;;;;6297935;28;20037;-81
2021/01/18 14:50:11;;;;;;;8.15;4.05;;;10.60;49.90;;;;;;6323818;28;20046;-82
2021/01/18 14:53:12;;;;;;;7.65;4.10;;;10.70;49.80;;;;;;6276011;28;20067;-80
2021/01/18 14:56:17;;;;;;;9.23;4.28;;;10.70;49.30;;;;;;6295664;28;20029;-80
2021/01/18 14:59:18;;;;;;;13.20;5.88;;;10.60;49.30;;;;;;6326428;28;20120;-82
2021/01/18 15:02:19;;;;;;;18.85;5.85;;;10.60;49.40;;;;;;6309107;28;20032;-81
2021/01/18 15:05:20;;;;;;;10.40;4.40;;;10.60;49.60;;;;;;6314363;28;20047;-80
2021/01/18 15:08:21;;;;;;;11.27;5.57;;;10.50;49.50;;;;;;6295897;28;20028;-82
2021/01/18 15:11:25;;;;;;;16.67;6.05;;;10.40;49.60;;;;;;6323919;28;20081;-80
2021/01/18 15:14:26;;;;;;;13.48;4.88;;;10.40;49.60;;;;;;6334695;27;20055;-81
2021/01/18 15:17:27;;;;;;;10.80;5.07;;;10.30;49.70;;;;;;6300302;28;20159;-80
2021/01/18 15:20:28;;;;;;;16.23;6.65;;;10.20;49.80;;;;;;6302434;28;20041;-80
2021/01/18 15:23:30;;;;;;;14.95;6.28;;;10.20;50.00;;;;;;6284415;28;20054;-81
2021/01/18 15:26:31;;;;;;;12.90;5.78;;;10.10;49.90;;;;;;6309096;28;20059;-81
2021/01/18 15:29:32;;;;;;;18.02;5.28;;;10.10;50.00;;;;;;6312328;28;20062;-80
2021/01/18 15:32:33;;;;;;;13.35;5.82;;;10.00;50.20;;;;;;6333259;28;20044;-81
2021/01/18 15:35:35;;;;;;;13.93;5.00;;;9.90;50.40;;;;;;6288704;28;20032;-82
2021/01/18 15:38:38;;;;;;;12.75;5.25;;;9.80;50.50;;;;;;6296086;28;20458;-82
2021/01/18 15:41:39;;;;;;;11.30;4.60;;;9.70;50.70;;;;;;6313681;28;20063;-82
2021/01/18 15:44:40;;;;;;;15.35;5.10;;;9.60;50.80;;;;;;6297247;28;20349;-82
2021/01/18 15:47:40;;;;;;;18.70;6.05;;;9.60;51.00;;;;;;6296419;28;20378;-83
2021/01/18 15:50:43;;;;;;;10.68;4.90;;;9.60;51.20;;;;;;6332260;28;20029;-80
2021/01/18 15:53:48;;;;;;;14.80;5.35;;;9.50;51.30;;;;;;6294347;28;20137;-81
2021/01/18 15:56:51;;;;;;;13.30;6.45;;;9.50;51.50;;;;;;6294771;28;20045;-80
2021/01/18 15:59:52;;;;;;;11.82;5.18;;;9.40;51.50;;;;;;6297433;28;20063;-80
2021/01/18 16:02:53;;;;;;;13.88;5.90;;;9.40;51.60;;;;;;6309086;28;20040;-81